createdAt,value
2022-10-28T00:01:16.198Z,54.83
2022-10-28T00:03:47.261Z,46.72
2022-10-28T00:06:23.491Z,45.80
2022-10-28T00:08:51.503Z,54.40
2022-10-28T00:11:21.510Z,43.03
2022-10-28T00:13:50.930Z,46.28
2022-10-28T00:16:23.863Z,52.88
2022-10-28T00:18:53.955Z,47.78
2022-10-28T00:21:26.427Z,46.53
2022-10-28T00:23:54.424Z,50.78
2022-10-28T00:26:27.490Z,48.47
2022-10-28T00:28:57.953Z,51.10
2022-10-28T00:31:27.491Z,46.63
2022-10-28T00:33:55.384Z,45.50
2022-10-28T00:36:26.393Z,43.38
2022-10-28T00:38:55.323Z,47.58
2022-10-28T00:41:28.412Z,46.38
2022-10-28T00:44:22.911Z,44.65
2022-10-28T00:46:53.381Z,40.33
2022-10-28T00:49:31.246Z,40.13
2022-10-28T00:52:12.306Z,41.97
2022-10-28T00:54:40.481Z,39.83
2022-10-28T00:57:17.253Z,39.30
2022-10-28T00:59:48.693Z,41.00
2022-10-28T01:02:16.824Z,40.75
2022-10-28T01:04:44.757Z,43.10
2022-10-28T01:07:11.978Z,42.85
2022-10-28T01:09:40.795Z,46.85
2022-10-28T01:12:46.230Z,44.20
2022-10-28T01:15:36.674Z,43.50
2022-10-28T01:18:16.153Z,40.65
2022-10-28T01:21:04.606Z,42.45
2022-10-28T01:23:53.332Z,48.03
2022-10-28T01:26:38.746Z,44.08
2022-10-28T01:29:39.898Z,39.80
2022-10-28T01:32:10.403Z,48.05
2022-10-28T01:34:58.030Z,39.92
2022-10-28T01:37:31.112Z,46.70
2022-10-28T01:40:19.733Z,38.65
2022-10-28T01:42:55.796Z,41.13
2022-10-28T01:45:26.831Z,38.73
2022-10-28T01:48:22.560Z,38.22
2022-10-28T01:50:58.105Z,37.65
2022-10-28T01:53:31.244Z,38.33
2022-10-28T01:56:02.979Z,39.20
2022-10-28T01:58:32.777Z,37.30
2022-10-28T02:01:04.732Z,37.42
2022-10-28T02:03:32.703Z,37.08
2022-10-28T02:06:07.115Z,46.00
2022-10-28T02:08:44.545Z,37.05
2022-10-28T02:11:34.592Z,38.55
2022-10-28T02:14:34.215Z,34.88
2022-10-28T02:17:25.853Z,36.05
2022-10-28T02:20:17.268Z,37.85
2022-10-28T02:22:56.860Z,36.47
2022-10-28T02:25:35.462Z,35.28
2022-10-28T02:28:07.203Z,36.53
2022-10-28T02:30:45.140Z,36.22
2022-10-28T02:33:18.446Z,35.35
2022-10-28T02:35:54.060Z,40.30
2022-10-28T02:38:26.440Z,35.25
2022-10-28T02:40:59.137Z,36.03
2022-10-28T02:43:28.112Z,36.58
2022-10-28T02:46:00.348Z,37.67
2022-10-28T02:48:40.108Z,37.50
2022-10-28T02:51:15.408Z,34.10
2022-10-28T02:53:51.294Z,38.20
2022-10-28T02:56:21.371Z,36.50
2022-10-28T02:58:49.113Z,35.10
2022-10-28T03:01:17.085Z,39.08
2022-10-28T03:03:44.449Z,35.95
2022-10-28T03:06:11.947Z,37.75
2022-10-28T03:08:39.227Z,40.33
2022-10-28T03:11:06.843Z,35.10
2022-10-28T03:13:34.067Z,37.70
2022-10-28T03:16:01.818Z,35.42
2022-10-28T03:18:29.512Z,39.22
2022-10-28T03:20:59.012Z,34.33
2022-10-28T03:23:26.485Z,36.58
2022-10-28T03:25:55.112Z,38.42
2022-10-28T03:28:22.288Z,40.85
2022-10-28T03:30:49.738Z,37.28
2022-10-28T03:33:17.027Z,40.90
2022-10-28T03:35:44.807Z,34.95
2022-10-28T03:38:11.983Z,34.03
2022-10-28T03:40:39.379Z,41.13
2022-10-28T03:43:06.712Z,36.95
2022-10-28T03:45:34.197Z,35.75
2022-10-28T03:48:01.380Z,34.72
2022-10-28T03:50:28.763Z,34.58
2022-10-28T03:52:56.146Z,34.45
2022-10-28T03:55:25.738Z,35.83
2022-10-28T03:57:53.829Z,36.47
2022-10-28T04:00:21.460Z,36.38
2022-10-28T04:02:53.401Z,32.50
2022-10-28T04:05:21.538Z,35.22
2022-10-28T04:07:48.807Z,31.98
2022-10-28T04:10:16.337Z,33.47
2022-10-28T04:12:43.626Z,32.67
2022-10-28T04:15:11.497Z,34.80
2022-10-28T04:17:38.793Z,32.88
2022-10-28T04:20:06.956Z,32.25
2022-10-28T04:22:34.458Z,30.10
2022-10-28T04:25:01.882Z,30.67
2022-10-28T04:27:29.109Z,30.27
2022-10-28T04:29:56.689Z,31.55
2022-10-28T04:32:24.036Z,32.03
2022-10-28T04:34:51.443Z,34.08
2022-10-28T04:37:21.125Z,31.05
2022-10-28T04:39:49.012Z,31.88
2022-10-28T04:42:16.280Z,31.27
2022-10-28T04:44:43.635Z,32.28
2022-10-28T04:47:10.821Z,36.53
2022-10-28T04:49:38.929Z,39.75
2022-10-28T04:52:06.745Z,31.70
2022-10-28T04:54:35.485Z,32.63
2022-10-28T04:57:02.837Z,31.83
2022-10-28T04:59:30.249Z,31.70
2022-10-28T05:01:58.384Z,35.45
2022-10-28T05:04:25.897Z,28.83
2022-10-28T05:06:53.104Z,34.92
2022-10-28T05:09:20.480Z,31.48
2022-10-28T05:11:47.699Z,34.00
2022-10-28T05:14:15.078Z,37.90
2022-10-28T05:16:42.340Z,30.98
2022-10-28T05:19:09.764Z,33.53
2022-10-28T05:21:36.968Z,33.08
2022-10-28T05:24:04.924Z,33.10
2022-10-28T05:26:32.211Z,39.30
2022-10-28T05:28:59.572Z,32.03
2022-10-28T05:31:26.939Z,35.22
2022-10-28T05:33:54.264Z,41.10
2022-10-28T05:36:21.498Z,34.40
2022-10-28T05:38:49.820Z,34.10
2022-10-28T05:41:17.042Z,34.63
2022-10-28T05:43:44.853Z,33.42
2022-10-28T05:46:12.009Z,36.58
2022-10-28T05:48:39.750Z,39.45
2022-10-28T05:51:06.872Z,35.53
2022-10-28T05:53:34.374Z,42.35
2022-10-28T05:56:01.522Z,37.60
2022-10-28T05:58:28.932Z,35.47
2022-10-28T06:00:56.236Z,35.28
2022-10-28T06:03:28.520Z,41.05
2022-10-28T06:05:58.935Z,35.40
2022-10-28T06:08:26.449Z,37.25
2022-10-28T06:10:53.332Z,49.80
2022-10-28T06:13:20.802Z,34.50
2022-10-28T06:15:52.309Z,40.58
2022-10-28T06:18:20.791Z,38.05
2022-10-28T06:20:52.649Z,39.92
2022-10-28T06:23:20.767Z,40.08
2022-10-28T06:25:48.425Z,36.92
2022-10-28T06:28:15.861Z,43.42
2022-10-28T06:30:43.055Z,34.80
2022-10-28T06:33:10.558Z,34.60
2022-10-28T06:35:37.749Z,43.85
2022-10-28T06:38:08.522Z,38.17
2022-10-28T06:40:36.627Z,36.95
2022-10-28T06:43:05.889Z,39.30
2022-10-28T06:45:34.291Z,39.05
2022-10-28T06:48:06.370Z,35.92
2022-10-28T06:50:35.310Z,33.95
2022-10-28T06:53:03.345Z,37.95
2022-10-28T06:55:30.797Z,37.67
2022-10-28T06:58:02.501Z,34.15
2022-10-28T07:00:34.956Z,34.60
2022-10-28T07:03:03.937Z,34.33
2022-10-28T07:05:31.447Z,36.55
2022-10-28T07:07:58.702Z,35.92
2022-10-28T07:10:26.060Z,35.95
2022-10-28T07:12:54.025Z,38.90
2022-10-28T07:15:22.121Z,37.63
2022-10-28T07:17:56.955Z,36.58
2022-10-28T07:20:28.056Z,36.97
2022-10-28T07:23:02.429Z,36.85
2022-10-28T07:25:31.436Z,37.97
2022-10-28T07:27:59.701Z,34.80
2022-10-28T07:30:28.387Z,35.28
2022-10-28T07:32:57.149Z,34.13
2022-10-28T07:35:25.165Z,35.95
2022-10-28T07:37:52.382Z,34.63
2022-10-28T07:40:21.729Z,34.70
2022-10-28T07:42:49.129Z,34.60
2022-10-28T07:45:17.661Z,34.38
2022-10-28T07:47:45.248Z,39.70
2022-10-28T07:50:13.185Z,34.45
2022-10-28T07:52:40.340Z,37.60
2022-10-28T07:55:08.297Z,33.15
2022-10-28T07:57:35.789Z,31.95
2022-10-28T08:00:05.099Z,33.22
2022-10-28T08:02:38.262Z,31.45
2022-10-28T08:05:06.347Z,33.38
2022-10-28T08:07:36.253Z,31.83
2022-10-28T08:10:07.068Z,32.17
2022-10-28T08:12:34.602Z,33.60
2022-10-28T08:15:02.821Z,32.72
2022-10-28T08:17:30.145Z,33.20
2022-10-28T08:19:57.503Z,31.73
2022-10-28T08:22:24.868Z,32.35
2022-10-28T08:24:52.286Z,30.92
2022-10-28T08:27:19.585Z,30.98
2022-10-28T08:29:47.355Z,31.48
2022-10-28T08:32:14.563Z,28.63
2022-10-28T08:34:43.638Z,28.65
2022-10-28T08:37:11.624Z,36.47
2022-10-28T08:39:39.263Z,68.13
2022-10-28T08:42:31.350Z,40.63
2022-10-28T08:45:15.767Z,34.50
2022-10-28T08:50:31.972Z,31.85
2022-10-28T08:53:10.397Z,32.65
2022-10-28T08:55:47.762Z,33.83
2022-10-28T08:58:22.235Z,35.17
2022-10-28T09:00:55.971Z,32.10
2022-10-28T09:03:28.979Z,33.70
2022-10-28T09:06:07.845Z,35.20
2022-10-28T09:08:42.329Z,31.52
2022-10-28T09:12:01.218Z,34.65
2022-10-28T09:14:48.365Z,35.80
2022-10-28T09:19:46.355Z,42.97
2022-10-28T09:22:41.331Z,36.95
2022-10-28T09:25:31.921Z,37.08
2022-10-28T09:28:06.809Z,35.00
2022-10-28T09:31:05.121Z,35.03
2022-10-28T09:33:35.181Z,33.65
2022-10-28T09:36:06.226Z,41.08
2022-10-28T09:38:39.983Z,39.80
2022-10-28T09:41:19.282Z,33.75
2022-10-28T09:43:55.009Z,34.58
2022-10-28T09:46:41.435Z,36.00
2022-10-28T09:49:36.603Z,39.60
2022-10-28T09:52:15.927Z,35.75
2022-10-28T09:54:49.420Z,36.22
2022-10-28T09:57:17.518Z,38.33
2022-10-28T09:59:45.620Z,38.78
2022-10-28T10:02:33.151Z,37.97
2022-10-28T10:05:02.689Z,37.92
2022-10-28T10:07:41.031Z,40.17
2022-10-28T10:10:32.751Z,42.05
2022-10-28T10:13:25.300Z,38.08
2022-10-28T10:16:32.965Z,37.80
2022-10-28T10:19:18.780Z,39.58
2022-10-28T10:21:51.689Z,39.28
2022-10-28T10:24:27.988Z,38.30
2022-10-28T10:26:56.739Z,39.03
2022-10-28T10:29:51.154Z,41.60
2022-10-28T10:32:36.929Z,39.88
2022-10-28T10:35:28.804Z,40.88
2022-10-28T10:37:59.399Z,39.40
2022-10-28T10:40:52.879Z,35.72
2022-10-28T10:43:33.930Z,36.05
2022-10-28T10:46:04.107Z,37.13
2022-10-28T10:48:36.445Z,39.78
2022-10-28T10:51:25.009Z,40.83
2022-10-28T10:54:15.414Z,37.80
2022-10-28T10:56:43.665Z,38.95
2022-10-28T10:59:31.279Z,38.20
2022-10-28T11:01:59.789Z,41.33
2022-10-28T11:04:28.563Z,40.17
2022-10-28T11:06:57.885Z,36.08
2022-10-28T11:09:38.371Z,37.42
2022-10-28T11:12:36.129Z,40.17
2022-10-28T11:15:28.343Z,41.72
2022-10-28T11:18:04.656Z,50.17
2022-10-28T11:20:44.076Z,41.67
2022-10-28T11:23:58.330Z,41.20
2022-10-28T11:26:26.041Z,37.35
2022-10-28T11:29:10.426Z,37.28
2022-10-28T11:31:56.074Z,39.33
2022-10-28T11:34:53.426Z,38.35
2022-10-28T11:37:57.289Z,38.20
2022-10-28T11:40:52.414Z,46.65
2022-10-28T11:43:40.953Z,38.75
2022-10-28T11:46:50.011Z,38.60
2022-10-28T11:49:34.233Z,37.58
2022-10-28T11:52:31.242Z,36.85
2022-10-28T11:55:52.630Z,38.47
2022-10-28T11:58:38.841Z,40.90
2022-10-28T12:01:27.792Z,39.80
2022-10-28T12:04:28.878Z,38.13
2022-10-28T12:07:39.241Z,37.50
2022-10-28T12:10:39.329Z,37.60
2022-10-28T12:13:09.438Z,36.22
2022-10-28T12:15:42.741Z,39.88
2022-10-28T12:18:33.800Z,40.75
2022-10-28T12:21:19.787Z,40.22
2022-10-28T12:23:48.528Z,38.63
2022-10-28T12:26:18.218Z,40.75
2022-10-28T12:29:00.994Z,40.28
2022-10-28T12:31:33.467Z,39.97
2022-10-28T12:34:06.137Z,40.55
2022-10-28T12:37:13.897Z,37.17
2022-10-28T12:40:12.508Z,34.97
2022-10-28T12:42:50.700Z,40.33
2022-10-28T12:45:40.150Z,40.40
2022-10-28T12:48:33.782Z,41.17
2022-10-28T12:51:30.943Z,39.88
2022-10-28T12:54:16.489Z,40.28
2022-10-28T12:56:55.152Z,41.60
2022-10-28T12:59:43.693Z,44.08
2022-10-28T13:02:54.110Z,40.53
2022-10-28T13:05:45.507Z,39.05
2022-10-28T13:08:53.035Z,39.63
2022-10-28T13:11:29.615Z,40.10
2022-10-28T13:14:41.593Z,40.45
2022-10-28T13:17:17.866Z,38.33
2022-10-28T13:19:55.138Z,38.80
2022-10-28T13:22:57.810Z,40.88
2022-10-28T13:26:00.201Z,39.13
2022-10-28T13:28:35.071Z,42.45
2022-10-28T13:31:06.178Z,39.28
2022-10-28T13:33:36.553Z,41.80
2022-10-28T13:36:38.697Z,39.90
2022-10-28T13:39:22.343Z,40.50
2022-10-28T13:41:49.745Z,40.95
2022-10-28T13:44:26.903Z,41.28
2022-10-28T13:46:59.767Z,41.05
2022-10-28T13:50:10.908Z,40.08
2022-10-28T13:52:42.911Z,44.22
2022-10-28T13:55:48.420Z,42.95
2022-10-28T13:58:23.057Z,40.75
2022-10-28T14:00:53.349Z,39.95
2022-10-28T14:03:39.938Z,40.20
2022-10-28T14:06:35.179Z,41.28
2022-10-28T14:09:03.464Z,40.20
2022-10-28T14:11:32.640Z,42.70
2022-10-28T14:14:03.402Z,40.92
2022-10-28T14:16:37.935Z,47.05
2022-10-28T14:19:06.411Z,40.80
2022-10-28T14:22:28.948Z,44.50
2022-10-28T14:24:56.439Z,38.55
2022-10-28T14:27:49.823Z,41.35
2022-10-28T14:30:20.842Z,45.58
2022-10-28T14:33:00.078Z,46.58
2022-10-28T14:35:40.736Z,44.67
2022-10-28T14:38:57.799Z,46.33
2022-10-28T14:42:00.104Z,43.80
2022-10-28T14:44:58.956Z,45.47
2022-10-28T14:47:56.506Z,47.20
2022-10-28T14:50:30.489Z,47.63
2022-10-28T14:53:29.154Z,45.17
2022-10-28T14:56:41.020Z,48.63
2022-10-28T14:59:33.380Z,49.78
2022-10-28T15:02:12.923Z,49.50
2022-10-28T15:04:42.893Z,48.85
2022-10-28T15:07:15.611Z,49.47
2022-10-28T15:09:44.910Z,52.63
2022-10-28T15:12:33.283Z,53.25
2022-10-28T15:15:00.765Z,52.45
2022-10-28T15:17:36.836Z,54.35
2022-10-28T15:20:23.430Z,54.35
2022-10-28T15:22:54.031Z,53.60
2022-10-28T15:25:40.118Z,54.22
2022-10-28T15:28:11.441Z,54.47
2022-10-28T15:30:45.822Z,52.30
2022-10-28T15:33:40.300Z,57.88
2022-10-28T15:36:20.849Z,57.03
2022-10-28T15:39:11.740Z,57.17
2022-10-28T15:41:42.487Z,52.08
2022-10-28T15:44:33.695Z,55.28
2022-10-28T15:47:35.862Z,58.63
2022-10-28T15:50:06.495Z,55.60
2022-10-28T15:52:40.100Z,53.20
2022-10-28T15:55:19.586Z,57.22
2022-10-28T15:58:15.075Z,58.67
2022-10-28T16:00:53.856Z,61.92
2022-10-28T16:03:49.068Z,61.50
2022-10-28T16:06:30.861Z,60.70
2022-10-28T16:09:20.516Z,59.40
2022-10-28T16:11:54.475Z,50.75
2022-10-28T16:14:45.501Z,55.88
2022-10-28T16:17:17.156Z,52.30
2022-10-28T16:20:02.466Z,47.92
2022-10-28T16:22:31.564Z,51.72
2022-10-28T16:24:58.730Z,53.35
2022-10-28T16:27:44.425Z,50.03
2022-10-28T16:30:12.230Z,42.30
2022-10-28T16:32:50.603Z,39.40
2022-10-28T16:35:20.411Z,40.97
2022-10-28T16:38:12.063Z,45.15
2022-10-28T16:40:55.052Z,44.90
2022-10-28T16:43:25.703Z,39.03
2022-10-28T16:45:55.411Z,43.10
2022-10-28T16:48:27.894Z,42.00
2022-10-28T16:51:18.150Z,45.08
2022-10-28T16:53:50.886Z,45.63
2022-10-28T16:56:18.548Z,46.67
2022-10-28T16:58:47.164Z,40.08
2022-10-28T17:01:20.009Z,37.85
2022-10-28T17:03:47.726Z,38.83
2022-10-28T17:06:14.917Z,38.40
2022-10-28T17:09:01.815Z,37.33
2022-10-28T17:14:01.985Z,29.48
2022-10-28T17:16:29.442Z,33.50
2022-10-28T17:18:57.065Z,33.08
2022-10-28T17:21:24.397Z,32.13
2022-10-28T17:23:52.101Z,39.17
2022-10-28T17:26:19.313Z,39.40
2022-10-28T17:28:52.258Z,35.97
2022-10-28T17:31:23.922Z,44.42
2022-10-28T17:33:54.780Z,36.40
2022-10-28T17:36:23.243Z,62.25
2022-10-28T17:38:50.899Z,41.17
2022-10-28T17:41:19.309Z,36.83
2022-10-28T17:44:05.535Z,54.13
2022-10-28T17:46:32.926Z,133.75
2022-10-28T17:49:00.141Z,40.00
2022-10-28T17:51:27.633Z,43.75
2022-10-28T17:53:55.683Z,34.60
2022-10-28T17:56:23.422Z,87.18
2022-10-28T17:58:53.526Z,65.38
2022-10-28T18:01:21.109Z,38.95
2022-10-28T18:03:51.900Z,34.72
2022-10-28T18:06:37.582Z,31.15
2022-10-28T18:09:24.330Z,30.73
2022-10-28T18:11:51.898Z,30.38
2022-10-28T18:14:20.233Z,29.00
2022-10-28T18:16:50.176Z,29.42
2022-10-28T18:19:17.572Z,29.17
2022-10-28T18:22:03.156Z,34.72
2022-10-28T18:24:30.512Z,38.35
2022-10-28T18:27:16.265Z,32.13
2022-10-28T18:29:43.605Z,29.63
2022-10-28T18:32:12.160Z,31.77
2022-10-28T18:34:57.816Z,30.73
2022-10-28T18:37:27.595Z,30.90
2022-10-28T18:39:54.836Z,29.67
2022-10-28T18:42:22.262Z,33.25
2022-10-28T18:44:49.762Z,28.60
2022-10-28T18:47:16.948Z,26.20
2022-10-28T18:49:45.673Z,27.55
2022-10-28T18:52:13.419Z,32.70
2022-10-28T18:54:40.607Z,29.67
2022-10-28T18:57:08.067Z,27.45
2022-10-28T18:59:52.402Z,28.75
2022-10-28T19:05:15.454Z,26.50
2022-10-28T19:07:43.650Z,26.83
2022-10-28T19:10:29.468Z,27.83
2022-10-28T19:12:57.082Z,27.67
2022-10-28T19:15:48.833Z,25.40
2022-10-28T19:18:38.457Z,26.88
2022-10-28T19:21:16.679Z,27.27
2022-10-28T19:23:44.005Z,25.05
2022-10-28T19:26:12.496Z,24.17
2022-10-28T19:28:44.734Z,24.27
2022-10-28T19:31:17.344Z,24.27
2022-10-28T19:33:45.337Z,21.70
2022-10-28T19:36:31.095Z,23.42
2022-10-28T19:38:58.616Z,24.13
2022-10-28T19:41:30.178Z,26.13
2022-10-28T19:44:15.714Z,27.88
2022-10-28T19:46:43.171Z,27.73
2022-10-28T19:49:10.387Z,28.00
2022-10-28T19:51:40.387Z,28.23
2022-10-28T19:54:26.112Z,23.95
2022-10-28T19:59:40.526Z,26.20
2022-10-28T20:02:07.930Z,25.60
2022-10-28T20:04:57.202Z,26.23
2022-10-28T20:07:24.636Z,37.85
2022-10-28T20:09:51.894Z,30.50
2022-10-28T20:12:19.327Z,26.35
2022-10-28T20:14:46.487Z,26.52
2022-10-28T20:17:15.330Z,26.95
2022-10-28T20:20:00.912Z,26.85
2022-10-28T20:22:28.298Z,26.33
2022-10-28T20:24:55.416Z,27.23
2022-10-28T20:27:41.012Z,28.55
2022-10-28T20:30:10.117Z,27.27
2022-10-28T20:32:37.350Z,26.52
2022-10-28T20:35:04.774Z,25.98
2022-10-28T20:37:32.147Z,27.20
2022-10-28T20:40:04.523Z,25.20
2022-10-28T20:42:35.086Z,26.35
2022-10-28T20:45:02.621Z,26.05
2022-10-28T20:47:48.308Z,28.20
2022-10-28T20:50:34.995Z,27.50
2022-10-28T20:53:02.335Z,25.02
2022-10-28T20:55:29.550Z,24.27
2022-10-28T20:57:56.882Z,26.40
2022-10-28T21:00:24.356Z,26.80
2022-10-28T21:02:54.369Z,24.77
2022-10-28T21:05:21.934Z,25.45
2022-10-28T21:08:07.819Z,25.52
2022-10-28T21:10:36.105Z,26.17
2022-10-28T21:13:04.565Z,24.90
2022-10-28T21:15:36.842Z,26.38
2022-10-28T21:18:05.584Z,27.52
2022-10-28T21:20:40.276Z,26.80
2022-10-28T21:23:07.809Z,28.92
2022-10-28T21:25:35.294Z,25.85
2022-10-28T21:28:02.535Z,26.02
2022-10-28T21:30:29.997Z,26.20
2022-10-28T21:32:57.923Z,27.15
2022-10-28T21:35:44.299Z,26.58
2022-10-28T21:38:30.609Z,25.58
2022-10-28T21:41:04.182Z,27.67
2022-10-28T21:43:33.519Z,25.92
2022-10-28T21:46:01.210Z,25.55
2022-10-28T21:48:29.576Z,22.35
2022-10-28T21:50:58.788Z,24.02
2022-10-28T21:53:26.726Z,23.90
2022-10-28T21:56:06.222Z,23.88
2022-10-28T21:58:36.380Z,23.25
2022-10-28T22:01:30.049Z,24.02
2022-10-28T22:03:57.776Z,22.98
2022-10-28T22:06:25.252Z,26.08
2022-10-28T22:08:53.656Z,21.52
2022-10-28T22:11:22.834Z,22.45
2022-10-28T22:14:08.515Z,22.10
2022-10-28T22:16:37.718Z,22.98
2022-10-28T22:19:07.699Z,22.52
2022-10-28T22:21:40.618Z,22.25
2022-10-28T22:24:08.396Z,24.30
2022-10-28T22:26:53.974Z,22.77
2022-10-28T22:29:21.832Z,29.58
2022-10-28T22:32:07.880Z,23.23
2022-10-28T22:34:35.303Z,22.35
2022-10-28T22:37:21.238Z,22.77
2022-10-28T22:40:07.588Z,26.55
2022-10-28T22:42:35.454Z,26.98
2022-10-28T22:45:21.249Z,32.25
2022-10-28T22:47:50.253Z,22.55
2022-10-28T22:50:17.504Z,21.77
2022-10-28T22:53:03.078Z,21.35
2022-10-28T22:55:50.033Z,22.15
2022-10-28T22:58:17.664Z,21.35
2022-10-28T23:00:45.850Z,21.83
2022-10-28T23:03:39.011Z,21.23
2022-10-28T23:06:26.939Z,20.13
2022-10-28T23:08:54.745Z,21.25
2022-10-28T23:11:40.650Z,19.00
2022-10-28T23:14:08.148Z,19.77
2022-10-28T23:16:35.308Z,19.67
2022-10-28T23:19:02.534Z,19.10
2022-10-28T23:21:30.111Z,19.70
2022-10-28T23:23:59.663Z,19.10
2022-10-28T23:26:29.178Z,19.77
2022-10-28T23:28:59.035Z,19.52
2022-10-28T23:31:27.099Z,19.23
2022-10-28T23:33:55.160Z,18.48
2022-10-28T23:36:23.039Z,19.83
2022-10-28T23:38:50.210Z,19.27
2022-10-28T23:41:18.935Z,18.63
2022-10-28T23:43:47.449Z,18.33
2022-10-28T23:46:36.608Z,17.83
2022-10-28T23:49:05.458Z,21.08
2022-10-28T23:51:32.775Z,19.77
2022-10-28T23:54:00.259Z,18.92
2022-10-28T23:56:47.760Z,19.85
2022-10-28T23:59:33.755Z,19.33
